Time;durP1;ratioP1;P1;durP2;ratioP2;P2;SDS_P1;SDS_P2;PMS_P1;PMS_P2;Temp;Humidity;BMP_temperature;BMP_pressure;BME280_temperature;BME280_humidity;BME280_pressure;Samples;Min_cycle;Max_cycle;Signal;HPM_P1;HPM_P2
2023/03/25 00:01:12;;;;;;;13.55;4.32;;;9.70;99.90;;;;;;5032310;28;20041;-61
2023/03/25 00:03:45;;;;;;;23.70;6.03;;;9.70;99.90;;;;;;5047902;28;20068;-61
2023/03/25 00:06:12;;;;;;;14.32;5.20;;;9.70;99.90;;;;;;5051243;28;20076;-61
2023/03/25 00:08:38;;;;;;;13.68;4.97;;;9.70;99.90;;;;;;5052242;28;20068;-61
2023/03/25 00:11:07;;;;;;;25.77;5.88;;;9.70;99.90;;;;;;5052462;28;20053;-61
2023/03/25 00:13:33;;;;;;;21.27;6.00;;;9.70;99.90;;;;;;5047549;28;20033;-61
2023/03/25 00:16:00;;;;;;;25.38;6.43;;;9.70;99.90;;;;;;5048614;28;20619;-61
2023/03/25 00:18:32;;;;;;;21.38;6.57;;;9.70;99.90;;;;;;5042069;28;20083;-61
2023/03/25 00:21:02;;;;;;;18.75;6.10;;;9.70;99.90;;;;;;5050973;28;20048;-61
2023/03/25 00:23:30;;;;;;;26.67;7.28;;;9.70;99.90;;;;;;5051915;28;20041;-61
2023/03/25 00:25:59;;;;;;;13.60;5.43;;;9.60;99.90;;;;;;5052529;28;20110;-61
2023/03/25 00:28:27;;;;;;;21.58;5.70;;;9.60;99.90;;;;;;5050807;28;20049;-61
2023/03/25 00:30:53;;;;;;;19.40;5.80;;;9.60;99.90;;;;;;5050185;28;20083;-61
2023/03/25 00:33:21;;;;;;;27.23;7.60;;;9.60;99.90;;;;;;5033285;28;20487;-62
2023/03/25 00:35:51;;;;;;;25.10;5.85;;;9.60;99.90;;;;;;5049942;28;20048;-61
2023/03/25 00:38:17;;;;;;;16.90;6.57;;;9.60;99.90;;;;;;5050754;28;20036;-61
2023/03/25 00:40:45;;;;;;;18.30;5.35;;;9.50;99.90;;;;;;5049315;28;20040;-61
2023/03/25 00:43:11;;;;;;;20.33;6.25;;;9.50;99.90;;;;;;5049825;28;20486;-61
2023/03/25 00:45:37;;;;;;;22.13;7.95;;;9.50;99.90;;;;;;5049057;28;20060;-61
2023/03/25 00:48:03;;;;;;;24.73;7.13;;;9.50;99.90;;;;;;5050788;28;20558;-61
2023/03/25 00:50:28;;;;;;;16.88;6.10;;;9.40;99.90;;;;;;5032453;28;20048;-61
2023/03/25 00:52:54;;;;;;;23.35;6.70;;;9.40;99.90;;;;;;5051011;28;20116;-61
2023/03/25 00:55:20;;;;;;;29.08;6.72;;;9.40;99.90;;;;;;5050434;28;20171;-61
2023/03/25 00:57:46;;;;;;;21.88;7.10;;;9.40;99.90;;;;;;5051217;28;20040;-61
2023/03/25 01:00:15;;;;;;;35.58;8.10;;;9.30;99.90;;;;;;5049707;28;20423;-61
2023/03/25 01:02:41;;;;;;;26.52;7.32;;;9.30;99.90;;;;;;5049357;28;20036;-61
2023/03/25 01:05:08;;;;;;;22.98;7.93;;;;;;;;;;5015451;28;20037;-61
2023/03/25 01:07:34;;;;;;;17.10;6.90;;;;;;;;;;5050083;28;20395;-61
2023/03/25 01:10:01;;;;;;;20.83;6.57;;;;;;;;;;5049518;28;20495;-61
2023/03/25 01:12:27;;;;;;;21.38;6.13;;;;;;;;;;5052576;28;20118;-61
2023/03/25 01:14:54;;;;;;;18.23;5.97;;;;;;;;;;5050901;28;20140;-61
2023/03/25 01:17:20;;;;;;;16.10;6.72;;;;;;;;;;5050033;28;20103;-61
2023/03/25 01:19:46;;;;;;;24.38;6.97;;;;;;;;;;5049264;28;20402;-62
2023/03/25 01:22:12;;;;;;;21.30;6.43;;;;;;;;;;5046600;28;20551;-61
2023/03/25 01:24:38;;;;;;;25.40;6.97;;;;;;;;;;5035285;28;20356;-61
2023/03/25 01:27:05;;;;;;;27.10;6.85;;;;;;;;;;5049525;28;20528;-61
2023/03/25 01:29:31;;;;;;;26.75;7.03;;;;;;;;;;5051409;28;20120;-61
2023/03/25 01:31:57;;;;;;;24.27;6.85;;;;;;;;;;5032636;28;20123;-61
2023/03/25 01:34:24;;;;;;;25.77;7.55;;;;;;;;;;5049077;28;20099;-61
2023/03/25 01:36:54;;;;;;;22.20;6.95;;;;;;;;;;5049345;28;20128;-61
2023/03/25 01:39:20;;;;;;;18.90;6.35;;;;;;;;;;5049445;28;20682;-61
2023/03/25 01:41:47;;;;;;;29.05;6.70;;;;;;;;;;5052920;28;20091;-62
2023/03/25 01:44:13;;;;;;;25.05;6.97;;;;;;;;;;5050983;28;20124;-61
2023/03/25 01:46:43;;;;;;;25.95;7.20;;;;;;;;;;5049732;28;20033;-61
2023/03/25 01:49:13;;;;;;;29.02;7.07;;;;;;;;;;5049780;28;20530;-62
2023/03/25 01:51:41;;;;;;;23.45;7.07;;;;;;;;;;5049219;28;20040;-61
2023/03/25 01:54:08;;;;;;;21.63;6.72;;;;;;;;;;5049647;28;20033;-61
2023/03/25 01:56:36;;;;;;;25.00;7.07;;;;;;;;;;5047759;28;20051;-62
2023/03/25 01:59:04;;;;;;;31.38;7.93;;;;;;;;;;5050112;28;20083;-62
2023/03/25 02:01:30;;;;;;;20.98;8.27;;;;;;;;;;5049984;28;20032;-61
2023/03/25 02:04:01;;;;;;;20.67;7.03;;;;;;;;;;5049609;28;20033;-61
2023/03/25 02:06:38;;;;;;;23.95;7.65;;;;;;;;;;5029521;28;20120;-61
2023/03/25 02:09:10;;;;;;;25.15;7.93;;;;;;;;;;5043418;28;20379;-61
2023/03/25 02:11:37;;;;;;;24.38;8.15;;;;;;;;;;5048161;28;20049;-61
2023/03/25 02:14:05;;;;;;;19.40;7.55;;;;;;;;;;5047704;28;20057;-61
2023/03/25 02:16:49;;;;;;;27.35;7.40;;;;;;;;;;5047285;28;20133;-61
2023/03/25 02:19:39;;;;;;;21.52;7.82;;;;;;;;;;5030814;28;20105;-61
2023/03/25 02:22:24;;;;;;;19.65;7.18;;;;;;;;;;5048354;28;20083;-61
2023/03/25 02:25:00;;;;;;;23.85;6.90;;;;;;;;;;5039969;28;20048;-62
2023/03/25 02:27:32;;;;;;;23.55;7.25;;;;;;;;;;5035850;28;20056;-61
2023/03/25 02:29:58;;;;;;;23.48;8.18;;;;;;;;;;5049519;28;20045;-61
2023/03/25 02:32:37;;;;;;;21.02;9.40;;;;;;;;;;5049730;28;20045;-61
2023/03/25 02:35:06;;;;;;;30.33;7.95;;;;;;;;;;5046954;28;20092;-61
2023/03/25 02:37:32;;;;;;;30.33;8.10;;;;;;;;;;5046937;28;20037;-61
2023/03/25 02:40:05;;;;;;;20.50;7.20;;;;;;;;;;5044416;28;20403;-62
2023/03/25 02:42:32;;;;;;;19.75;7.85;;;;;;;;;;5045292;28;20107;-62
2023/03/25 02:44:58;;;;;;;21.88;7.00;;;;;;;;;;5048740;28;20083;-61
2023/03/25 02:47:27;;;;;;;22.52;6.78;;;;;;;;;;5052284;28;20517;-61
2023/03/25 02:49:56;;;;;;;21.00;7.80;;;;;;;;;;5047894;28;20044;-61
2023/03/25 02:52:26;;;;;;;25.05;8.25;;;;;;;;;;5044264;28;20491;-61
2023/03/25 02:54:56;;;;;;;26.10;7.85;;;;;;;;;;5014386;28;20073;-61
2023/03/25 02:57:24;;;;;;;23.10;7.60;;;;;;;;;;5048909;28;20080;-61
2023/03/25 02:59:52;;;;;;;24.02;7.60;;;;;;;;;;5048218;28;20037;-61
2023/03/25 03:02:20;;;;;;;22.20;6.80;;;;;;;;;;5045993;28;20080;-61
2023/03/25 03:04:51;;;;;;;23.52;7.50;;;;;;;;;;5050376;28;20094;-61
2023/03/25 03:07:26;;;;;;;23.05;7.45;;;;;;;;;;5045645;28;20059;-61
2023/03/25 03:10:16;;;;;;;26.10;8.02;;;;;;;;;;5050893;28;20044;-61
2023/03/25 03:12:43;;;;;;;26.13;8.90;;;;;;;;;;5027191;28;20059;-61
2023/03/25 03:15:09;;;;;;;21.10;5.95;;;;;;;;;;5047896;28;20041;-61
2023/03/25 03:17:49;;;;;;;19.52;7.30;;;;;;;;;;5045768;28;20035;-61
2023/03/25 03:20:33;;;;;;;21.40;7.28;;;;;;;;;;5047150;28;20045;-61
2023/03/25 03:23:22;;;;;;;24.83;7.30;;;;;;;;;;5047546;28;20449;-61
2023/03/25 03:26:15;;;;;;;19.98;6.65;;;;;;;;;;5035792;28;20136;-61
2023/03/25 03:29:11;;;;;;;27.40;8.30;;;;;;;;;;5012024;28;20519;-62
2023/03/25 03:31:41;;;;;;;24.02;7.45;;;;;;;;;;4974420;28;20102;-61
2023/03/25 03:34:13;;;;;;;28.92;8.85;;;;;;;;;;5038820;28;20152;-61
2023/03/25 03:36:42;;;;;;;19.30;7.70;;;;;;;;;;5048373;28;20072;-61
2023/03/25 03:39:15;;;;;;;21.73;6.32;;;;;;;;;;5048247;28;20231;-61
2023/03/25 03:41:42;;;;;;;18.48;6.32;;;;;;;;;;5047765;28;20510;-61
2023/03/25 03:44:12;;;;;;;19.38;7.43;;;;;;;;;;5037121;28;20514;-62
2023/03/25 03:46:53;;;;;;;25.45;7.30;;;;;;;;;;5043822;28;20101;-61
2023/03/25 03:49:22;;;;;;;25.02;7.50;;;;;;;;;;5043723;28;20599;-61
2023/03/25 03:51:51;;;;;;;30.17;7.97;;;;;;;;;;5049399;28;20435;-61
2023/03/25 03:54:23;;;;;;;21.90;6.93;;;;;;;;;;5046981;28;20041;-61
2023/03/25 03:57:02;;;;;;;31.27;7.43;;;;;;;;;;5031514;28;20033;-61
2023/03/25 03:59:41;;;;;;;18.90;7.05;;;;;;;;;;5044501;28;20045;-61
2023/03/25 04:02:14;;;;;;;18.27;7.03;;;;;;;;;;5029261;28;20106;-61
2023/03/25 04:04:41;;;;;;;23.60;7.82;;;;;;;;;;5032162;28;20041;-61
2023/03/25 04:07:10;;;;;;;25.85;8.20;;;;;;;;;;5045062;28;20044;-62
2023/03/25 04:09:42;;;;;;;23.58;7.32;;;;;;;;;;5030362;28;20491;-62
2023/03/25 04:12:13;;;;;;;22.30;7.90;;;;;;;;;;5046248;28;20080;-62
2023/03/25 04:14:40;;;;;;;27.60;7.13;;;;;;;;;;5047172;28;20098;-61
2023/03/25 04:17:06;;;;;;;24.65;7.45;;;;;;;;;;5028365;28;20041;-61
2023/03/25 04:19:35;;;;;;;20.23;7.80;;;;;;;;;;5054392;28;20041;-61
2023/03/25 04:22:02;;;;;;;20.88;6.53;;;;;;;;;;5047966;28;20033;-61
2023/03/25 04:24:31;;;;;;;24.65;7.43;;;;;;;;;;5029085;28;20279;-61
2023/03/25 04:27:02;;;;;;;21.02;6.38;;;;;;;;;;5046602;28;20053;-61
2023/03/25 04:29:30;;;;;;;25.67;8.88;;;;;;;;;;5047001;28;20036;-61
2023/03/25 04:31:56;;;;;;;24.08;7.60;;;;;;;;;;5029762;28;20052;-62
2023/03/25 04:34:23;;;;;;;29.13;8.85;;;;;;;;;;5046046;28;20045;-61
2023/03/25 04:36:50;;;;;;;24.73;8.65;;;;;;;;;;5046882;28;20349;-61
2023/03/25 04:39:17;;;;;;;23.00;7.75;;;;;;;;;;5049831;28;20527;-61
2023/03/25 04:41:43;;;;;;;22.92;9.05;;;;;;;;;;5050221;28;20122;-61
2023/03/25 04:44:11;;;;;;;21.92;7.88;;;;;;;;;;5046212;28;20041;-61
2023/03/25 04:46:37;;;;;;;32.35;6.75;;;;;;;;;;5046896;28;20037;-61
2023/03/25 04:49:12;;;;;;;16.67;6.22;;;;;;;;;;5050363;28;20194;-61
2023/03/25 04:51:43;;;;;;;23.85;8.35;;;;;;;;;;5034411;28;20068;-61
2023/03/25 04:54:10;;;;;;;21.98;6.80;;;;;;;;;;5034680;28;20041;-61
2023/03/25 04:56:38;;;;;;;18.73;6.35;;;;;;;;;;5050523;28;20033;-61
2023/03/25 04:59:05;;;;;;;31.45;7.85;;;;;;;;;;5049931;28;20475;-61
2023/03/25 05:01:31;;;;;;;23.55;7.30;;;;;;;;;;5049591;28;20362;-61
2023/03/25 05:04:04;;;;;;;29.70;7.40;;;;;;;;;;5032284;28;20065;-61
2023/03/25 05:06:32;;;;;;;25.23;7.47;;;;;;;;;;5048669;28;20048;-61
2023/03/25 05:09:00;;;;;;;20.50;7.13;;;;;;;;;;5049843;28;20356;-61
2023/03/25 05:11:27;;;;;;;20.98;6.93;;;;;;;;;;5048975;28;20091;-61
2023/03/25 05:13:54;;;;;;;25.10;6.60;;;;;;;;;;5049286;28;20033;-61
2023/03/25 05:16:20;;;;;;;22.30;6.88;;;;;;;;;;5039315;28;20037;-61
2023/03/25 05:18:46;;;;;;;19.23;6.10;;;;;;;;;;5055864;28;20033;-61
2023/03/25 05:21:13;;;;;;;20.52;8.20;;;;;;;;;;5049018;28;20044;-61
2023/03/25 05:23:40;;;;;;;29.35;7.65;;;;;;;;;;5011716;28;20079;-61
2023/03/25 05:26:07;;;;;;;24.23;7.72;;;;;;;;;;5042898;28;20127;-61
2023/03/25 05:28:34;;;;;;;19.85;8.07;;;;;;;;;;5046146;28;20115;-61
2023/03/25 05:31:07;;;;;;;28.88;8.82;;;;;;;;;;5044545;28;20037;-61
2023/03/25 05:33:35;;;;;;;27.40;6.97;;;;;;;;;;5043299;28;20446;-61
2023/03/25 05:36:03;;;;;;;28.90;7.65;;;;;;;;;;5047370;28;20072;-61
2023/03/25 05:38:31;;;;;;;24.20;7.32;;;;;;;;;;5049588;28;20086;-61
2023/03/25 05:40:59;;;;;;;24.27;8.52;;;;;;;;;;5044982;28;20041;-61
2023/03/25 05:43:25;;;;;;;15.50;8.27;;;;;;;;;;5023492;28;20099;-61
2023/03/25 05:45:51;;;;;;;32.80;7.78;;;;;;;;;;5018666;28;20048;-61
2023/03/25 05:48:17;;;;;;;32.40;9.65;;;;;;;;;;5041662;28;20118;-61
2023/03/25 05:50:44;;;;;;;22.75;7.82;;;;;;;;;;5047644;28;20078;-61
2023/03/25 05:53:11;;;;;;;27.00;6.95;;;;;;;;;;5042591;28;20507;-61
2023/03/25 05:55:37;;;;;;;22.70;7.35;;;;;;;;;;5028986;28;20140;-61
2023/03/25 05:58:03;;;;;;;26.77;7.70;;;;;;;;;;5030462;28;20091;-61
2023/03/25 06:00:29;;;;;;;22.83;8.40;;;;;;;;;;5031076;28;20048;-61
2023/03/25 06:02:58;;;;;;;34.95;7.70;;;;;;;;;;5048848;28;20037;-61
2023/03/25 06:05:24;;;;;;;28.70;7.70;;;;;;;;;;5029787;28;20049;-61
2023/03/25 06:07:54;;;;;;;21.52;7.03;;;;;;;;;;5049298;28;20454;-61
2023/03/25 06:10:21;;;;;;;23.42;6.35;;;;;;;;;;5048905;28;20171;-61
2023/03/25 06:12:48;;;;;;;21.10;7.38;;;;;;;;;;5051123;28;20079;-61
2023/03/25 06:15:27;;;;;;;25.33;7.97;;;;;;;;;;5046393;28;20037;-61
2023/03/25 06:17:56;;;;;;;25.35;7.68;;;;;;;;;;5033859;28;20041;-61
2023/03/25 06:20:23;;;;;;;22.20;6.15;;;;;;;;;;5040393;28;20037;-61
2023/03/25 06:22:49;;;;;;;17.25;6.25;;;;;;;;;;5046166;28;20491;-62
2023/03/25 06:25:18;;;;;;;18.85;5.75;;;;;;;;;;5043560;28;20045;-61
2023/03/25 06:27:44;;;;;;;19.58;5.53;;;;;;;;;;5051669;28;20531;-62
2023/03/25 06:30:12;;;;;;;21.77;6.95;;;;;;;;;;4998122;28;20044;-61
2023/03/25 06:32:39;;;;;;;14.70;5.07;;;;;;;;;;5045755;28;20047;-61
2023/03/25 06:35:06;;;;;;;23.05;6.00;;;;;;;;;;5028961;28;20116;-61
2023/03/25 06:37:32;;;;;;;19.08;5.68;;;;;;;;;;5041503;28;20399;-61
2023/03/25 06:39:58;;;;;;;21.55;6.40;;;;;;;;;;5043024;28;20056;-61
2023/03/25 06:42:26;;;;;;;18.83;5.18;;;;;;;;;;5027573;28;20426;-61
2023/03/25 06:44:52;;;;;;;17.55;5.88;;;;;;;;;;5043217;28;20034;-61
2023/03/25 06:47:18;;;;;;;15.48;4.60;;;;;;;;;;5045144;28;20521;-61
2023/03/25 06:49:45;;;;;;;14.32;4.60;;;;;;;;;;5046930;28;20041;-62
2023/03/25 06:52:11;;;;;;;20.48;5.93;;;;;;;;;;5045548;28;20080;-61
2023/03/25 06:54:38;;;;;;;18.95;4.40;;;;;;;;;;5045445;28;20048;-62
2023/03/25 06:57:04;;;;;;;20.00;5.18;;;;;;;;;;5045883;28;20048;-61
2023/03/25 06:59:31;;;;;;;9.70;4.60;;;;;;;;;;5046913;28;20040;-62
2023/03/25 07:01:57;;;;;;;18.77;6.03;;;;;;;;;;5045623;28;20387;-61
2023/03/25 07:04:24;;;;;;;21.83;6.97;;;;;;;;;;5042889;28;20090;-61
2023/03/25 07:06:50;;;;;;;12.68;4.03;;;;;;;;;;5026981;28;20432;-61
2023/03/25 07:09:16;;;;;;;18.08;4.80;;;;;;;;;;5050100;28;20037;-61
2023/03/25 07:11:43;;;;;;;10.40;3.88;;;;;;;;;;5046163;28;20059;-61
2023/03/25 07:14:09;;;;;;;12.25;4.22;;;;;;;;;;5046726;28;20029;-61
2023/03/25 07:16:35;;;;;;;15.82;4.65;;;;;;;;;;5043970;28;20182;-62
2023/03/25 07:19:01;;;;;;;17.45;5.95;;;;;;;;;;5032466;28;20124;-62
2023/03/25 07:21:27;;;;;;;13.07;4.13;;;;;;;;;;5045468;28;20036;-62
2023/03/25 07:23:54;;;;;;;11.77;4.93;;;;;;;;;;5049455;28;20395;-61
2023/03/25 07:26:20;;;;;;;18.70;6.35;;;;;;;;;;5043674;28;20060;-61
2023/03/25 07:28:46;;;;;;;18.92;5.40;;;;;;;;;;5034489;28;20180;-61
2023/03/25 07:31:14;;;;;;;17.90;5.45;;;;;;;;;;5012561;28;20051;-62
2023/03/25 07:33:40;;;;;;;16.63;5.03;;;;;;;;;;5044378;28;20597;-62
2023/03/25 07:36:07;;;;;;;11.55;4.20;;;;;;;;;;5044611;28;20037;-61
2023/03/25 07:38:34;;;;;;;18.98;4.18;;;;;;;;;;5044365;28;20033;-61
2023/03/25 07:41:04;;;;;;;20.65;5.35;;;;;;;;;;5017941;28;20398;-61
2023/03/25 07:43:31;;;;;;;16.17;4.65;;;;;;;;;;5034841;28;20037;-61
2023/03/25 07:45:58;;;;;;;17.38;6.00;;;;;;;;;;5032267;28;20053;-61
2023/03/25 07:48:24;;;;;;;14.90;4.35;;;;;;;;;;5011996;28;20439;-62
2023/03/25 07:50:51;;;;;;;15.77;4.22;;;;;;;;;;5044660;28;20044;-61
2023/03/25 07:53:18;;;;;;;14.27;4.35;;;;;;;;;;5041311;28;20808;-61
2023/03/25 07:55:45;;;;;;;17.00;4.53;;;;;;;;;;5044549;28;20045;-61
2023/03/25 07:58:11;;;;;;;15.95;4.80;;;;;;;;;;5046320;28;20858;-61
2023/03/25 08:00:38;;;;;;;14.85;5.10;;;;;;;;;;5047119;28;20118;-61
2023/03/25 08:03:05;;;;;;;17.27;5.45;;;;;;;;;;5047975;28;20116;-61
2023/03/25 08:05:31;;;;;;;21.63;5.88;;;;;;;;;;5024806;28;20084;-61
2023/03/25 08:07:59;;;;;;;16.23;4.57;;;;;;;;;;5045021;28;20663;-62
2023/03/25 08:10:26;;;;;;;18.17;6.28;;;;;;;;;;5042672;28;20052;-61
2023/03/25 08:12:52;;;;;;;18.73;5.10;;;;;;;;;;5030768;28;20037;-61
2023/03/25 08:15:23;;;;;;;21.05;5.07;;;;;;;;;;5029609;28;20040;-61
2023/03/25 08:17:49;;;;;;;21.23;4.75;;;;;;;;;;5050229;28;20032;-61
2023/03/25 08:20:15;;;;;;;19.30;5.13;;;;;;;;;;5049793;28;20033;-61
2023/03/25 08:22:43;;;;;;;16.90;6.22;;;;;;;;;;5052659;28;20496;-61
2023/03/25 08:25:09;;;;;;;13.60;4.82;;;;;;;;;;5048956;28;20215;-61
2023/03/25 08:27:36;;;;;;;16.80;6.00;;;;;;;;;;5049833;28;20060;-61
2023/03/25 08:30:03;;;;;;;15.18;5.45;;;;;;;;;;5047663;28;20078;-61
2023/03/25 08:32:30;;;;;;;21.52;5.35;;;;;;;;;;5049152;28;20053;-61
2023/03/25 08:34:56;;;;;;;21.63;6.38;;;;;;;;;;5050149;28;20174;-61
2023/03/25 08:37:24;;;;;;;14.90;5.22;;;;;;;;;;5049171;28;20072;-61
2023/03/25 08:39:54;;;;;;;20.60;6.15;;;;;;;;;;5049862;28;20124;-61
2023/03/25 08:42:20;;;;;;;20.15;4.72;;;;;;;;;;5044337;28;20037;-61
2023/03/25 08:44:46;;;;;;;12.95;4.05;;;;;;;;;;5049921;28;20067;-61
2023/03/25 08:47:12;;;;;;;14.00;4.32;;;;;;;;;;5047208;28;20098;-61
2023/03/25 08:49:38;;;;;;;24.92;4.72;;;;;;;;;;5049198;28;20703;-61
2023/03/25 08:52:07;;;;;;;14.88;5.22;;;;;;;;;;5049100;28;20457;-61
2023/03/25 08:54:33;;;;;;;13.43;4.60;;;;;;;;;;5026144;28;20159;-61
2023/03/25 08:56:59;;;;;;;12.32;3.97;;;;;;;;;;5049473;28;20148;-61
2023/03/25 08:59:25;;;;;;;13.80;5.25;;;;;;;;;;5049675;28;20084;-61
2023/03/25 09:01:52;;;;;;;17.25;5.15;;;;;;;;;;5055517;28;20059;-62
2023/03/25 09:04:17;;;;;;;10.75;5.93;;;9.30;99.90;;;;;;5049004;28;20502;-62
2023/03/25 09:06:43;;;;;;;14.07;4.85;;;9.50;99.90;;;;;;5042272;28;20045;-61
2023/03/25 09:09:12;;;;;;;15.55;4.78;;;9.50;99.90;;;;;;5048270;28;20063;-62
2023/03/25 09:11:37;;;;;;;18.10;4.82;;;9.50;99.90;;;;;;5029368;28;20040;-62
2023/03/25 09:14:04;;;;;;;13.80;5.03;;;9.60;99.90;;;;;;5048629;28;20049;-62
2023/03/25 09:16:31;;;;;;;10.50;4.65;;;9.50;99.90;;;;;;5037212;28;20033;-62
2023/03/25 09:18:57;;;;;;;17.90;4.65;;;;;;;;;;5054931;28;20124;-62
2023/03/25 09:21:23;;;;;;;15.13;4.72;;;;;;;;;;5049999;28;20518;-62
2023/03/25 09:23:50;;;;;;;15.45;4.50;;;;;;;;;;5047726;28;20507;-62
2023/03/25 09:26:16;;;;;;;15.32;4.82;;;;;;;;;;5007163;28;20061;-62
2023/03/25 09:28:42;;;;;;;15.85;4.57;;;;;;;;;;5042776;28;20522;-63
2023/03/25 09:31:08;;;;;;;17.80;4.82;;;;;;;;;;5029025;28;20160;-63
2023/03/25 09:33:35;;;;;;;12.50;5.03;;;;;;;;;;5048075;28;20044;-62
2023/03/25 09:36:02;;;;;;;15.65;4.82;;;;;;;;;;5053071;28;20843;-63
2023/03/25 09:38:29;;;;;;;14.10;3.83;;;;;;;;;;5049490;28;20091;-62
2023/03/25 09:40:55;;;;;;;11.90;5.28;;;;;;;;;;5050012;28;20083;-63
2023/03/25 09:43:51;;;;;;;15.75;4.00;;;;;;;;;;5046118;28;20223;-62
2023/03/25 09:46:17;;;;;;;17.92;4.75;;;;;;;;;;5047113;28;20037;-62
2023/03/25 09:48:45;;;;;;;12.88;4.95;;;;;;;;;;5047147;28;20084;-63
2023/03/25 09:51:18;;;;;;;11.95;3.88;;;;;;;;;;5042900;28;20136;-63
2023/03/25 09:53:48;;;;;;;20.90;4.80;;;;;;;;;;5046399;28;20037;-62
2023/03/25 09:56:19;;;;;;;14.95;5.15;;;;;;;;;;5046123;28;20041;-62
2023/03/25 09:58:46;;;;;;;12.50;4.60;;;;;;;;;;5027810;28;20179;-62
2023/03/25 10:01:39;;;;;;;17.67;5.75;;;;;;;;;;5045103;28;20041;-62
2023/03/25 10:04:17;;;;;;;10.40;4.22;;;;;;;;;;5042525;28;20103;-62
2023/03/25 10:06:52;;;;;;;16.98;4.40;;;;;;;;;;5047214;28;20408;-62
2023/03/25 10:09:24;;;;;;;14.73;5.10;;;;;;;;;;5051704;28;20102;-62
2023/03/25 10:11:50;;;;;;;13.18;4.25;;;;;;;;;;5028905;28;20045;-62
2023/03/25 10:14:19;;;;;;;14.60;4.00;;;;;;;;;;5029086;28;20538;-62
2023/03/25 10:17:03;;;;;;;9.25;3.90;;;;;;;;;;5041952;28;20490;-63
2023/03/25 10:19:33;;;;;;;11.18;3.70;;;;;;;;;;5041981;28;20124;-62
2023/03/25 10:22:11;;;;;;;17.45;5.75;;;;;;;;;;5046031;28;20041;-63
2023/03/25 10:24:41;;;;;;;14.80;4.13;;;;;;;;;;5044258;28;20490;-62
2023/03/25 10:27:14;;;;;;;14.20;4.35;;;;;;;;;;5045927;28;20588;-62
2023/03/25 10:29:46;;;;;;;10.68;4.85;;;;;;;;;;5025865;28;20076;-62
2023/03/25 10:32:27;;;;;;;10.02;4.50;;;;;;;;;;5043037;28;20037;-62
2023/03/25 10:34:54;;;;;;;17.95;5.53;;;;;;;;;;5042530;28;20146;-62
2023/03/25 10:37:32;;;;;;;14.55;4.47;;;;;;;;;;5047549;28;20032;-63
2023/03/25 10:40:12;;;;;;;18.33;4.75;;;;;;;;;;5046603;28;20029;-62
2023/03/25 10:42:41;;;;;;;10.00;3.67;;;;;;;;;;5043075;28;20404;-62
2023/03/25 10:45:16;;;;;;;17.15;4.93;;;;;;;;;;5041902;28;20099;-62
2023/03/25 10:47:44;;;;;;;22.85;4.85;;;;;;;;;;5022949;28;20045;-62
2023/03/25 10:50:19;;;;;;;10.20;4.43;;;;;;;;;;5043018;28;20072;-64
2023/03/25 10:52:47;;;;;;;10.02;4.05;;;;;;;;;;5023916;28;20055;-63
2023/03/25 10:55:24;;;;;;;20.90;4.88;;;;;;;;;;5046737;28;20049;-63
2023/03/25 10:57:51;;;;;;;15.23;4.45;;;;;;;;;;5028570;28;20047;-63
2023/03/25 11:00:18;;;;;;;11.57;3.60;;;;;;;;;;5045656;28;20124;-62
2023/03/25 11:02:45;;;;;;;11.55;3.55;;;;;;;;;;5037895;28;20518;-62
2023/03/25 11:05:15;;;;;;;8.93;3.53;;;;;;;;;;5049104;28;20052;-62
2023/03/25 11:07:44;;;;;;;11.18;3.85;;;;;;;;;;5046666;28;20409;-62
2023/03/25 11:10:21;;;;;;;15.38;4.05;;;;;;;;;;5030304;28;20041;-62
2023/03/25 11:12:50;;;;;;;14.50;5.30;;;;;;;;;;5048402;28;20044;-62
2023/03/25 11:15:30;;;;;;;10.57;4.20;;;;;;;;;;5041522;28;20442;-62
2023/03/25 11:18:11;;;;;;;16.35;4.85;;;;;;;;;;5048217;28;20059;-62
2023/03/25 11:20:38;;;;;;;14.75;3.83;;;;;;;;;;5041862;28;20037;-62
2023/03/25 11:23:15;;;;;;;14.07;4.22;;;;;;;;;;5046011;28;20048;-63
2023/03/25 11:25:42;;;;;;;11.77;3.78;;;;;;;;;;5040982;28;20033;-63
2023/03/25 11:28:20;;;;;;;11.48;4.18;;;;;;;;;;5029684;28;20063;-62
2023/03/25 11:31:05;;;;;;;18.63;4.90;;;;;;;;;;5043894;28;20120;-62
2023/03/25 11:33:31;;;;;;;11.63;4.07;;;;;;;;;;5046608;28;20036;-62
2023/03/25 11:36:09;;;;;;;13.48;3.60;;;;;;;;;;5036699;28;20513;-62
2023/03/25 11:38:37;;;;;;;12.45;3.75;;;;;;;;;;5033743;28;20064;-62
2023/03/25 11:41:03;;;;;;;16.52;4.93;;;;;;;;;;5044374;28;20033;-62
2023/03/25 11:43:35;;;;;;;15.48;4.47;;;;;;;;;;5025134;28;20045;-62
2023/03/25 11:46:12;;;;;;;15.10;3.92;;;;;;;;;;5041238;28;20632;-63
2023/03/25 11:48:40;;;;;;;11.18;4.70;;;;;;;;;;5046738;28;20587;-62
2023/03/25 11:51:09;;;;;;;19.63;4.25;;;;;;;;;;5049036;28;20045;-63
2023/03/25 11:53:35;;;;;;;17.05;4.47;;;;;;;;;;5045791;28;20049;-62
2023/03/25 11:56:10;;;;;;;11.02;3.58;;;;;;;;;;5049752;28;20067;-62
2023/03/25 11:58:38;;;;;;;14.30;4.50;;;;;;;;;;5051490;28;20446;-62
2023/03/25 12:01:05;;;;;;;14.68;5.28;;;;;;;;;;5045847;28;20056;-63
2023/03/25 12:03:33;;;;;;;14.75;3.95;;;;;;;;;;5048145;28;20037;-62
2023/03/25 12:06:03;;;;;;;17.30;4.57;;;;;;;;;;5048609;28;20041;-64
2023/03/25 12:08:30;;;;;;;12.88;3.88;;;;;;;;;;5048567;28;20490;-63
2023/03/25 12:10:56;;;;;;;9.95;4.05;;;;;;;;;;5046037;28;20045;-62
2023/03/25 12:13:26;;;;;;;17.48;3.85;;;;;;;;;;5045228;28;20124;-62
2023/03/25 12:15:58;;;;;;;11.43;3.72;;;;;;;;;;5047423;28;20052;-62
2023/03/25 12:18:30;;;;;;;10.15;4.13;;;;;;;;;;5050785;28;20041;-63
2023/03/25 12:21:20;;;;;;;8.82;5.32;;;;;;;;;;5020134;28;20418;-62
2023/03/25 12:24:07;;;;;;;13.80;4.32;;;;;;;;;;4993480;28;20091;-63
2023/03/25 12:26:38;;;;;;;12.55;3.72;;;;;;;;;;5041915;28;20057;-62
2023/03/25 12:29:07;;;;;;;5.82;3.03;;;;;;;;;;5039055;28;20049;-62
2023/03/25 12:31:37;;;;;;;14.48;4.05;;;;;;;;;;5046408;28;20044;-63
2023/03/25 12:34:09;;;;;;;14.43;4.55;;;;;;;;;;5046713;28;20040;-62
2023/03/25 12:36:46;;;;;;;16.13;4.60;;;;;;;;;;5044283;28;20037;-63
2023/03/25 12:39:31;;;;;;;9.93;3.63;;;;;;;;;;5028726;28;20144;-62
2023/03/25 12:41:57;;;;;;;13.93;4.95;;;;;;;;;;5047452;28;20447;-63
2023/03/25 12:44:27;;;;;;;10.45;3.53;;;;;;;;;;5039733;28;20033;-63
2023/03/25 12:47:16;;;;;;;10.13;3.20;;;;;;;;;;5051255;28;20043;-62
2023/03/25 12:50:09;;;;;;;13.68;3.92;;;;;;;;;;5037254;28;20040;-63
2023/03/25 12:52:35;;;;;;;;;;;;;;;;;;5043856;28;20168;-63
2023/03/25 12:55:40;;;;;;;9.30;4.07;;;;;;;;;;5047316;28;20015;-62
2023/03/25 12:58:21;;;;;;;17.25;4.28;;;;;;;;;;4946131;28;20650;-63
2023/03/25 13:00:54;;;;;;;14.10;4.63;;;;;;;;;;4952025;28;20062;-63
2023/03/25 13:03:20;;;;;;;14.50;4.88;;;;;;;;;;4984639;28;20304;-62
2023/03/25 13:06:05;;;;;;;12.98;5.03;;;;;;;;;;5045049;28;20044;-62
2023/03/25 13:08:35;;;;;;;9.27;3.40;;;;;;;;;;5041629;28;20117;-62
2023/03/25 13:11:12;;;;;;;13.77;4.72;;;;;;;;;;5039744;28;20086;-62
2023/03/25 13:13:39;;;;;;;15.45;3.47;;;;;;;;;;5043663;28;20514;-62
2023/03/25 13:16:25;;;;;;;13.65;3.63;;;;;;;;;;5041938;28;20494;-62
2023/03/25 13:18:55;;;;;;;11.75;3.60;;;;;;;;;;5045025;28;20418;-62
2023/03/25 13:21:26;;;;;;;11.45;3.55;;;;;;;;;;5025967;28;20036;-62
2023/03/25 13:23:58;;;;;;;11.95;3.67;;;;;;;;;;5040565;28;20037;-62
2023/03/25 13:26:25;;;;;;;13.80;3.75;;;;;;;;;;5024469;28;20165;-62
2023/03/25 13:29:11;;;;;;;13.05;3.15;;;;;;;;;;5047441;28;20484;-62
2023/03/25 13:31:42;;;;;;;6.25;2.83;;;;;;;;;;5042949;28;20041;-62
2023/03/25 13:34:21;;;;;;;16.30;3.72;;;;;;;;;;5035398;28;20534;-62
2023/03/25 13:37:10;;;;;;;11.90;3.55;;;;;;;;;;5037502;28;20042;-62
2023/03/25 13:39:54;;;;;;;15.88;3.88;;;;;;;;;;5039991;28;20041;-62
2023/03/25 13:42:26;;;;;;;21.30;3.90;;;;;;;;;;5045972;28;20128;-62
2023/03/25 13:44:53;;;;;;;4.63;2.60;;;;;;;;;;5024948;28;20108;-62
2023/03/25 13:47:52;;;;;;;6.93;2.90;;;;;;;;;;5045808;28;20399;-62
2023/03/25 13:50:24;;;;;;;12.55;3.00;;;;;;;;;;5001480;28;20155;-62
2023/03/25 13:52:53;;;;;;;10.55;3.03;;;;;;;;;;5042458;28;20422;-62
2023/03/25 13:55:23;;;;;;;11.23;4.28;;;;;;;;;;5028594;28;20044;-62
2023/03/25 13:57:49;;;;;;;13.63;4.53;;;;;;;;;;5047231;28;20072;-62
2023/03/25 14:00:18;;;;;;;18.05;5.07;;;;;;;;;;5047140;28;20033;-62
2023/03/25 14:02:55;;;;;;;11.95;3.95;;;;;;;;;;5026376;28;20052;-62
2023/03/25 14:05:33;;;;;;;14.00;4.85;;;;;;;;;;5029391;28;20153;-62
2023/03/25 14:08:20;;;;;;;6.85;3.47;;;;;;;;;;5046469;28;20071;-62
2023/03/25 14:10:49;;;;;;;16.55;4.47;;;;;;;;;;5013525;28;20049;-62
2023/03/25 14:13:30;;;;;;;13.00;4.60;;;;;;;;;;5045745;28;20063;-63
2023/03/25 14:16:11;;;;;;;11.90;4.95;;;;;;;;;;5043637;28;20048;-63
2023/03/25 14:18:47;;;;;;;18.88;4.68;;;;;;;;;;5043081;28;20040;-62
2023/03/25 14:21:23;;;;;;;11.80;4.50;;;;;;;;;;5047298;28;20231;-63
2023/03/25 14:23:59;;;;;;;23.50;4.88;;;;;;;;;;5021876;28;20483;-62
2023/03/25 14:26:26;;;;;;;11.52;3.95;;;;;;;;;;5030833;28;20064;-63
2023/03/25 14:28:53;;;;;;;10.48;4.20;;;;;;;;;;5040139;28;20049;-62
2023/03/25 14:31:23;;;;;;;11.07;3.65;;;;;;;;;;5045871;28;20116;-62
2023/03/25 14:34:01;;;;;;;9.27;3.53;;;;;;;;;;5046758;28;20117;-62
2023/03/25 14:36:31;;;;;;;7.88;3.63;;;;;;;;;;5045746;28;20080;-62
2023/03/25 14:38:58;;;;;;;12.80;3.03;;;;;;;;;;5045871;28;20402;-62